Time;durP1;ratioP1;P1;durP2;ratioP2;P2;SDS_P1;SDS_P2;PMS_P1;PMS_P2;Temp;Humidity;BMP_temperature;BMP_pressure;BME280_temperature;BME280_humidity;BME280_pressure;Samples;Min_cycle;Max_cycle;Signal;HPM_P1;HPM_P2
2022/09/28 00:00:05;;;;;;;0.00;0.00;;;15.00;88.00;;;;;;4142825;28;20119;-68
2022/09/28 00:02:55;;;;;;;0.00;0.00;;;15.00;88.10;;;;;;4143175;28;20048;-68
2022/09/28 00:05:37;;;;;;;0.00;0.00;;;15.00;88.10;;;;;;4150879;28;20490;-68
2022/09/28 00:08:17;;;;;;;0.00;0.00;;;15.00;88.10;;;;;;4158997;28;20064;-67
2022/09/28 00:10:59;;;;;;;0.00;0.00;;;15.00;88.10;;;;;;4159026;28;20044;-68
2022/09/28 00:13:40;;;;;;;0.00;0.00;;;15.00;88.10;;;;;;4159334;28;20094;-68
2022/09/28 00:16:25;;;;;;;0.00;0.00;;;15.00;88.00;;;;;;4159004;28;20056;-68
2022/09/28 00:19:07;;;;;;;0.00;0.00;;;15.00;88.10;;;;;;4158552;28;20053;-68
2022/09/28 00:21:49;;;;;;;0.00;0.00;;;15.00;88.10;;;;;;4159172;28;20183;-67
2022/09/28 00:24:29;;;;;;;0.00;0.00;;;15.00;88.10;;;;;;4157953;28;20058;-68
2022/09/28 00:27:10;;;;;;;0.22;0.22;;;15.00;88.10;;;;;;4142578;28;20080;-67
2022/09/28 00:29:51;;;;;;;0.88;0.88;;;14.90;88.00;;;;;;4158349;28;20466;-68
2022/09/28 00:32:32;;;;;;;0.00;0.00;;;14.90;88.20;;;;;;4146140;28;20061;-67
2022/09/28 00:35:13;;;;;;;0.00;0.00;;;14.90;88.20;;;;;;4141430;28;20049;-68
2022/09/28 00:37:56;;;;;;;0.00;0.00;;;15.00;88.10;;;;;;4141551;28;20498;-68
2022/09/28 00:40:37;;;;;;;0.00;0.00;;;15.00;88.10;;;;;;4145875;28;20180;-68
2022/09/28 00:43:18;;;;;;;0.00;0.00;;;14.90;88.10;;;;;;4152292;28;20142;-68
2022/09/28 00:46:04;;;;;;;0.00;0.00;;;14.90;88.00;;;;;;4157905;28;20060;-69
2022/09/28 00:48:55;;;;;;;0.00;0.00;;;14.90;87.90;;;;;;4157434;28;20098;-69
2022/09/28 00:51:38;;;;;;;0.15;0.15;;;15.00;88.00;;;;;;4157209;28;20057;-68
2022/09/28 00:54:22;;;;;;;0.00;0.00;;;14.90;87.90;;;;;;4158490;28;20056;-69
2022/09/28 00:57:04;;;;;;;0.00;0.00;;;14.90;87.90;;;;;;4158885;28;20052;-68
2022/09/28 00:59:44;;;;;;;0.00;0.00;;;14.90;87.90;;;;;;4158618;28;20072;-68
2022/09/28 01:02:25;;;;;;;0.00;0.00;;;14.90;87.90;;;;;;4168413;28;20431;-68
2022/09/28 01:05:09;;;;;;;0.00;0.00;;;14.90;87.90;;;;;;4157198;28;20049;-69
2022/09/28 01:07:51;;;;;;;0.00;0.00;;;14.90;87.90;;;;;;4157318;28;20244;-68
2022/09/28 01:10:33;;;;;;;0.00;0.00;;;14.90;87.90;;;;;;4142327;28;20065;-68
2022/09/28 01:13:16;;;;;;;0.05;0.05;;;14.90;88.00;;;;;;4156816;28;20052;-68
2022/09/28 01:16:06;;;;;;;0.30;0.30;;;14.80;87.90;;;;;;4157352;28;20343;-69
2022/09/28 01:18:59;;;;;;;0.00;0.00;;;14.80;87.80;;;;;;4156979;28;20048;-69
2022/09/28 01:21:52;;;;;;;0.00;0.00;;;14.90;88.60;;;;;;4156587;28;20095;-69
2022/09/28 01:24:42;;;;;;;0.00;0.00;;;14.80;87.70;;;;;;4157378;28;20065;-69
2022/09/28 01:27:28;;;;;;;0.00;0.00;;;14.80;87.70;;;;;;4157207;28;20416;-68
2022/09/28 01:30:11;;;;;;;0.00;0.00;;;14.80;87.70;;;;;;4140943;28;20048;-69
2022/09/28 01:32:58;;;;;;;0.00;0.00;;;14.80;87.60;;;;;;4141891;28;20048;-68
2022/09/28 01:35:45;;;;;;;0.00;0.00;;;14.80;87.70;;;;;;4157222;28;20052;-67
2022/09/28 01:38:30;;;;;;;0.10;0.10;;;14.80;87.60;;;;;;4158515;28;20458;-69
2022/09/28 01:41:13;;;;;;;0.00;0.00;;;14.80;87.60;;;;;;4156900;28;20047;-68
2022/09/28 01:43:58;;;;;;;0.00;0.00;;;14.80;87.70;;;;;;4156577;28;20107;-69
2022/09/28 01:46:43;;;;;;;0.00;0.00;;;14.80;87.70;;;;;;4157829;28;20385;-69
2022/09/28 01:49:33;;;;;;;0.00;0.00;;;14.70;87.60;;;;;;4145613;28;20130;-69
2022/09/28 01:52:20;;;;;;;0.00;0.00;;;14.70;87.70;;;;;;4140922;28;20561;-68
2022/09/28 01:55:07;;;;;;;0.00;0.00;;;14.80;87.70;;;;;;4141931;28;20057;-68
2022/09/28 01:57:52;;;;;;;0.00;0.00;;;14.80;87.70;;;;;;4143511;28;20103;-68
2022/09/28 02:00:40;;;;;;;0.00;0.00;;;14.80;88.60;;;;;;4156931;28;20056;-69
2022/09/28 02:03:29;;;;;;;0.00;0.00;;;14.80;87.80;;;;;;4156819;28;20057;-69
2022/09/28 02:06:20;;;;;;;0.00;0.00;;;14.80;87.80;;;;;;4156515;28;20061;-69
2022/09/28 02:09:08;;;;;;;0.00;0.00;;;14.70;87.70;;;;;;4157770;28;20095;-68
2022/09/28 02:11:58;;;;;;;0.10;0.10;;;14.70;87.70;;;;;;4145417;28;20485;-68
2022/09/28 02:14:40;;;;;;;0.55;0.55;;;14.70;87.70;;;;;;4145404;28;20123;-68
2022/09/28 02:17:22;;;;;;;0.00;0.00;;;14.70;87.70;;;;;;4157432;28;20175;-68
2022/09/28 02:20:04;;;;;;;0.00;0.00;;;14.70;87.80;;;;;;4156513;28;20110;-68
2022/09/28 02:22:48;;;;;;;0.00;0.00;;;14.70;87.80;;;;;;4155576;28;20514;-67
2022/09/28 02:25:33;;;;;;;0.00;0.00;;;14.70;87.80;;;;;;4145076;28;20413;-67
2022/09/28 02:28:15;;;;;;;0.00;0.00;;;14.70;87.90;;;;;;4156746;28;20501;-67
2022/09/28 02:30:55;;;;;;;0.00;0.00;;;14.70;87.80;;;;;;4144955;28;20056;-67
2022/09/28 02:33:40;;;;;;;0.00;0.00;;;14.70;87.80;;;;;;4156919;28;20546;-67
2022/09/28 02:36:22;;;;;;;0.00;0.00;;;14.70;87.90;;;;;;4156502;28;20144;-67
2022/09/28 02:39:03;;;;;;;;;;;14.60;87.90;;;;;;4156910;28;20045;-67
2022/09/28 02:41:55;;;;;;;0.00;0.00;;;14.60;87.90;;;;;;4142304;28;19932;-67
2022/09/28 02:45:00;;;;;;;0.00;0.00;;;14.60;87.90;;;;;;4154352;28;20060;-68
2022/09/28 02:47:56;;;;;;;0.00;0.00;;;14.60;87.90;;;;;;4147634;28;20059;-68
2022/09/28 02:50:47;;;;;;;0.00;0.00;;;14.60;87.90;;;;;;4163173;28;20525;-68
2022/09/28 02:53:46;;;;;;;0.45;0.45;;;14.60;87.90;;;;;;4148626;28;20421;-67
2022/09/28 02:56:46;;;;;;;0.98;0.98;;;14.60;87.90;;;;;;4159501;28;20060;-67
2022/09/28 02:59:47;;;;;;;0.00;0.00;;;14.60;87.90;;;;;;4143126;28;20060;-67
2022/09/28 03:02:32;;;;;;;0.00;0.00;;;14.60;87.90;;;;;;4149215;28;20127;-67
2022/09/28 03:05:19;;;;;;;0.00;0.00;;;14.50;87.90;;;;;;4159480;28;20048;-67
2022/09/28 03:08:06;;;;;;;0.00;0.00;;;14.50;87.90;;;;;;4147571;28;20115;-67
2022/09/28 03:10:53;;;;;;;0.00;0.00;;;14.60;87.90;;;;;;4147906;28;20048;-67
2022/09/28 03:13:35;;;;;;;0.00;0.00;;;14.60;87.80;;;;;;4159203;28;20142;-67
2022/09/28 03:16:19;;;;;;;0.00;0.00;;;14.50;87.70;;;;;;4158508;28;20056;-66
2022/09/28 03:19:01;;;;;;;0.80;0.73;;;14.50;87.70;;;;;;4142683;28;20199;-67
2022/09/28 03:21:43;;;;;;;0.00;0.00;;;14.50;87.70;;;;;;4146038;28;20056;-67
2022/09/28 03:24:26;;;;;;;0.00;0.00;;;14.50;87.60;;;;;;4158892;28;20055;-67
2022/09/28 03:27:08;;;;;;;0.00;0.00;;;14.50;87.60;;;;;;4146461;28;20512;-67
2022/09/28 03:29:49;;;;;;;0.00;0.00;;;14.50;87.60;;;;;;4158118;28;20102;-69
2022/09/28 03:32:29;;;;;;;0.00;0.00;;;14.50;87.60;;;;;;4170346;28;20402;-67
2022/09/28 03:35:12;;;;;;;0.00;0.00;;;14.50;87.60;;;;;;4158832;28;20114;-67
2022/09/28 03:37:55;;;;;;;0.00;0.00;;;14.50;87.50;;;;;;4159133;28;20611;-67
2022/09/28 03:40:39;;;;;;;0.00;0.00;;;14.50;87.50;;;;;;4158435;28;20109;-67
2022/09/28 03:43:21;;;;;;;0.00;0.00;;;14.50;87.50;;;;;;4158810;28;20195;-67
2022/09/28 03:46:02;;;;;;;0.00;0.00;;;14.50;87.70;;;;;;4158853;28;20075;-67
2022/09/28 03:48:47;;;;;;;0.03;0.03;;;14.50;87.60;;;;;;4149262;28;20048;-67
2022/09/28 03:51:28;;;;;;;0.00;0.00;;;14.50;87.60;;;;;;4158342;28;20064;-66
2022/09/28 03:54:09;;;;;;;0.17;0.17;;;14.40;87.50;;;;;;4158590;28;20064;-67
2022/09/28 03:56:52;;;;;;;0.00;0.00;;;14.40;87.50;;;;;;4159270;28;20064;-66
2022/09/28 03:59:36;;;;;;;0.00;0.00;;;14.40;87.60;;;;;;4158103;28;20072;-67
2022/09/28 04:02:17;;;;;;;0.00;0.00;;;14.40;87.60;;;;;;4147083;28;20047;-67
2022/09/28 04:04:58;;;;;;;0.00;0.00;;;14.40;87.70;;;;;;4160197;28;20882;-67
2022/09/28 04:07:38;;;;;;;0.00;0.00;;;14.40;87.80;;;;;;4157889;28;20056;-68
2022/09/28 04:10:20;;;;;;;1.10;0.55;;;14.40;87.80;;;;;;4158420;28;20296;-67
2022/09/28 04:13:02;;;;;;;0.27;0.27;;;14.40;87.90;;;;;;4158385;28;20110;-67
2022/09/28 04:15:51;;;;;;;0.00;0.00;;;14.40;87.90;;;;;;4146951;28;20094;-68
2022/09/28 04:18:34;;;;;;;0.00;0.00;;;14.40;88.00;;;;;;4146553;28;20176;-68
2022/09/28 04:21:27;;;;;;;0.00;0.00;;;14.40;88.00;;;;;;4158019;28;20060;-66
2022/09/28 04:24:15;;;;;;;0.00;0.00;;;14.40;88.10;;;;;;4158260;28;20068;-67
2022/09/28 04:29:14;;;;;;;0.00;0.00;;;14.40;88.10;;;;;;4158964;28;20072;-67
2022/09/28 04:29:57;;;;;;;1.67;1.58;;;14.40;88.10;;;;;;4157471;28;20075;-66
2022/09/28 04:32:38;;;;;;;0.00;0.00;;;14.40;88.10;;;;;;4159380;28;20044;-66
2022/09/28 04:35:20;;;;;;;0.00;0.00;;;14.30;88.10;;;;;;4158047;28;20056;-66
2022/09/28 04:38:01;;;;;;;0.00;0.00;;;14.40;88.40;;;;;;4156858;28;20541;-66
2022/09/28 04:40:43;;;;;;;;;;;14.40;88.20;;;;;;4158220;28;20861;-66
2022/09/28 04:43:23;;;;;;;0.00;0.00;;;14.30;88.10;;;;;;4158065;28;19983;-68
2022/09/28 04:46:06;;;;;;;0.00;0.00;;;14.30;88.10;;;;;;4146496;28;20547;-68
2022/09/28 04:48:55;;;;;;;0.10;0.10;;;14.30;88.10;;;;;;4142974;28;20103;-69
2022/09/28 04:51:56;;;;;;;0.08;0.08;;;14.30;89.20;;;;;;4157544;28;20176;-68
2022/09/28 04:54:37;;;;;;;0.40;0.40;;;14.40;89.00;;;;;;4156696;28;20103;-66
2022/09/28 04:57:19;;;;;;;0.00;0.00;;;14.40;89.00;;;;;;4157288;28;20056;-66
2022/09/28 05:00:00;;;;;;;0.00;0.00;;;14.40;89.70;;;;;;4157643;28;20106;-68
2022/09/28 05:02:44;;;;;;;0.00;0.00;;;14.40;88.70;;;;;;4157667;28;20049;-66
2022/09/28 05:05:48;;;;;;;0.00;0.00;;;14.40;88.70;;;;;;4147558;28;20048;-66
2022/09/28 05:08:45;;;;;;;0.00;0.00;;;14.40;88.70;;;;;;4140919;28;20056;-66
2022/09/28 05:11:26;;;;;;;0.10;0.10;;;14.40;88.40;;;;;;4140039;28;20060;-66
2022/09/28 05:14:08;;;;;;;0.00;0.00;;;14.40;88.20;;;;;;4152351;28;20052;-66
2022/09/28 05:16:49;;;;;;;0.93;0.88;;;14.40;88.00;;;;;;4154323;28;20191;-65
2022/09/28 05:19:40;;;;;;;0.00;0.00;;;14.40;87.90;;;;;;4153108;28;20052;-66
2022/09/28 05:22:20;;;;;;;0.00;0.00;;;14.40;87.80;;;;;;4141056;28;20052;-64
2022/09/28 05:25:01;;;;;;;0.13;0.13;;;14.30;87.60;;;;;;4153333;28;20497;-64
2022/09/28 05:27:48;;;;;;;0.00;0.00;;;14.30;87.60;;;;;;4157149;28;20076;-64
2022/09/28 05:30:42;;;;;;;0.00;0.00;;;14.30;87.50;;;;;;4156883;28;20467;-62
2022/09/28 05:33:43;;;;;;;2.35;1.42;;;14.30;87.40;;;;;;4158254;28;20053;-64
2022/09/28 05:36:29;;;;;;;0.00;0.00;;;14.30;87.30;;;;;;4140475;28;20104;-64
2022/09/28 05:39:10;;;;;;;0.00;0.00;;;14.30;87.20;;;;;;4142226;28;20200;-64
2022/09/28 05:41:51;;;;;;;0.00;0.00;;;14.20;87.10;;;;;;4140601;28;20351;-65
2022/09/28 05:44:32;;;;;;;0.00;0.00;;;14.20;87.10;;;;;;4143753;28;20052;-65
2022/09/28 05:47:13;;;;;;;0.00;0.00;;;14.20;87.30;;;;;;4156749;28;20134;-65
2022/09/28 05:49:54;;;;;;;0.00;0.00;;;14.20;87.00;;;;;;4145807;28;20064;-65
2022/09/28 05:52:37;;;;;;;0.00;0.00;;;14.20;87.00;;;;;;4156921;28;20053;-64
2022/09/28 05:55:18;;;;;;;0.00;0.00;;;14.20;86.80;;;;;;4139865;28;20169;-65
2022/09/28 05:58:00;;;;;;;0.03;0.03;;;14.20;87.50;;;;;;4153755;28;20056;-65
2022/09/28 06:00:42;;;;;;;0.00;0.00;;;14.20;86.60;;;;;;4154286;28;20188;-65
2022/09/28 06:03:24;;;;;;;0.00;0.00;;;14.20;86.60;;;;;;4156034;28;20059;-64
2022/09/28 06:06:04;;;;;;;0.10;0.10;;;14.20;86.40;;;;;;4153921;28;20099;-64
2022/09/28 06:08:48;;;;;;;0.00;0.00;;;14.20;86.30;;;;;;4157503;28;20047;-65
2022/09/28 06:11:47;;;;;;;0.00;0.00;;;14.10;86.20;;;;;;4156603;28;20052;-65
2022/09/28 06:14:43;;;;;;;0.50;0.50;;;14.10;86.10;;;;;;4140060;28;20586;-65
2022/09/28 06:17:25;;;;;;;0.00;0.00;;;14.10;86.10;;;;;;4151018;28;20103;-64
2022/09/28 06:20:27;;;;;;;0.47;0.47;;;14.10;86.00;;;;;;4161083;28;20204;-62
2022/09/28 06:23:28;;;;;;;0.45;0.45;;;14.10;86.00;;;;;;4160994;28;20199;-62
2022/09/28 06:26:11;;;;;;;0.00;0.00;;;14.10;85.90;;;;;;4160309;28;20270;-62
2022/09/28 06:28:52;;;;;;;0.00;0.00;;;14.10;85.80;;;;;;4148753;28;20127;-62
2022/09/28 06:31:33;;;;;;;0.00;0.00;;;14.10;85.80;;;;;;4148545;28;20187;-62
2022/09/28 06:34:13;;;;;;;0.00;0.00;;;14.10;85.80;;;;;;4159561;28;20052;-62
2022/09/28 06:36:54;;;;;;;0.52;0.52;;;14.00;85.80;;;;;;4159636;28;20065;-65
2022/09/28 06:39:36;;;;;;;0.00;0.00;;;14.00;85.60;;;;;;4161257;28;20107;-64
2022/09/28 06:42:19;;;;;;;0.00;0.00;;;14.00;85.40;;;;;;4159361;28;20044;-65
2022/09/28 06:45:30;;;;;;;0.00;0.00;;;14.10;85.40;;;;;;4131863;28;20455;-64
2022/09/28 06:48:27;;;;;;;0.13;0.13;;;14.00;85.30;;;;;;4154762;28;20374;-64
2022/09/28 06:51:09;;;;;;;0.00;0.00;;;14.00;85.10;;;;;;4131862;28;20061;-64
2022/09/28 06:53:59;;;;;;;0.00;0.00;;;14.00;85.00;;;;;;4157331;28;20394;-63
2022/09/28 06:56:50;;;;;;;1.43;1.27;;;14.00;85.00;;;;;;4142850;28;20131;-64
2022/09/28 06:59:33;;;;;;;1.35;0.80;;;14.00;85.00;;;;;;4143336;28;20844;-64
2022/09/28 07:02:14;;;;;;;0.00;0.00;;;14.00;84.90;;;;;;4146330;28;20068;-66
2022/09/28 07:05:02;;;;;;;1.65;1.17;;;14.00;85.80;;;;;;4160579;28;20064;-66
2022/09/28 07:07:53;;;;;;;0.10;0.10;;;14.00;84.90;;;;;;4159458;28;20067;-64
2022/09/28 07:10:56;;;;;;;0.75;0.65;;;14.00;84.90;;;;;;4131872;28;20053;-65
2022/09/28 07:13:53;;;;;;;0.00;0.00;;;14.00;84.90;;;;;;4153729;28;20119;-64
2022/09/28 07:16:37;;;;;;;0.00;0.00;;;14.00;84.90;;;;;;4143133;28;20068;-65
2022/09/28 07:19:39;;;;;;;0.45;0.45;;;14.00;84.80;;;;;;4154128;28;20099;-64
2022/09/28 07:22:20;;;;;;;0.00;0.00;;;14.00;84.80;;;;;;4146434;28;20413;-64
2022/09/28 07:25:17;;;;;;;0.10;0.10;;;14.00;84.70;;;;;;4156764;28;20083;-64
2022/09/28 07:28:16;;;;;;;0.00;0.00;;;14.00;85.40;;;;;;4149240;28;20164;-64
2022/09/28 07:31:19;;;;;;;0.00;0.00;;;14.00;84.50;;;;;;4159190;28;20080;-64
2022/09/28 07:34:31;;;;;;;0.00;0.00;;;14.00;84.40;;;;;;4154960;28;20443;-64
2022/09/28 07:37:17;;;;;;;0.00;0.00;;;14.00;84.40;;;;;;4159030;28;20131;-65
2022/09/28 07:43:04;;;;;;;0.00;0.00;;;14.00;84.40;;;;;;4159443;28;20155;-62
2022/09/28 07:45:46;;;;;;;0.20;0.20;;;14.00;84.50;;;;;;4143495;28;20057;-62
2022/09/28 07:48:27;;;;;;;0.25;0.25;;;14.00;84.40;;;;;;4150728;28;20222;-62
2022/09/28 07:51:23;;;;;;;0.63;0.63;;;14.00;84.40;;;;;;4146928;28;20052;-62
2022/09/28 07:54:31;;;;;;;0.75;0.75;;;14.00;84.40;;;;;;4156558;28;20053;-62
2022/09/28 07:57:47;;;;;;;0.70;0.70;;;14.00;84.40;;;;;;4159540;28;20107;-63
2022/09/28 08:00:39;;;;;;;0.80;0.80;;;14.00;84.40;;;;;;4146992;28;20064;-62
2022/09/28 08:03:21;;;;;;;0.00;0.00;;;14.00;84.40;;;;;;4158405;28;20079;-62
2022/09/28 08:06:05;;;;;;;0.20;0.20;;;14.00;84.50;;;;;;4147045;28;20307;-62
2022/09/28 08:08:49;;;;;;;0.00;0.00;;;14.10;84.50;;;;;;4157905;28;20556;-62
2022/09/28 08:11:32;;;;;;;0.00;0.00;;;14.10;84.50;;;;;;4157430;28;20060;-63
2022/09/28 08:14:37;;;;;;;0.25;0.25;;;14.10;84.40;;;;;;4146489;28;20200;-62
2022/09/28 08:17:36;;;;;;;0.00;0.00;;;14.00;84.20;;;;;;4148746;28;20068;-62
2022/09/28 08:23:20;;;;;;;0.38;0.38;;;14.10;84.20;;;;;;4142787;28;20525;-62
2022/09/28 08:26:04;;;;;;;0.65;0.65;;;14.10;84.20;;;;;;4146992;28;20053;-62
2022/09/28 08:28:46;;;;;;;0.08;0.08;;;14.10;84.20;;;;;;4156128;28;20052;-62
2022/09/28 08:31:58;;;;;;;0.00;0.00;;;14.10;84.20;;;;;;4157202;28;20429;-62
2022/09/28 08:34:47;;;;;;;0.00;0.00;;;14.10;84.10;;;;;;4158683;28;20076;-62
2022/09/28 08:37:51;;;;;;;0.00;0.00;;;14.10;84.10;;;;;;4157723;28;20418;-63
2022/09/28 08:41:06;;;;;;;0.00;0.00;;;14.10;84.10;;;;;;4157897;28;20096;-61
2022/09/28 08:44:13;;;;;;;0.00;0.00;;;14.10;84.00;;;;;;4157373;28;20059;-60
2022/09/28 08:50:33;;;;;;;0.20;0.20;;;14.10;84.10;;;;;;4151829;28;20087;-61
2022/09/28 08:53:38;;;;;;;0.00;0.00;;;14.10;84.10;;;;;;4158903;28;20056;-61
2022/09/28 08:56:44;;;;;;;0.00;0.00;;;14.10;84.20;;;;;;4158129;28;20067;-61
2022/09/28 08:59:31;;;;;;;0.00;0.00;;;14.10;84.30;;;;;;4141449;28;20458;-60
2022/09/28 09:02:24;;;;;;;0.10;0.10;;;14.10;84.30;;;;;;4156207;28;21544;-61
2022/09/28 09:05:12;;;;;;;0.00;0.00;;;14.10;84.30;;;;;;4157555;28;20123;-60
2022/09/28 09:08:26;;;;;;;0.00;0.00;;;14.10;84.30;;;;;;4157071;28;20052;-58
2022/09/28 09:11:17;;;;;;;0.00;0.00;;;14.10;84.40;;;;;;4145645;28;20072;-59
2022/09/28 09:14:15;;;;;;;0.00;0.00;;;14.10;84.40;;;;;;4155650;28;20060;-60
2022/09/28 09:17:01;;;;;;;0.00;0.00;;;14.10;84.40;;;;;;4157295;28;20052;-61
2022/09/28 09:19:54;;;;;;;0.00;0.00;;;14.10;84.60;;;;;;4141733;28;20060;-61
2022/09/28 09:23:11;;;;;;;1.10;1.10;;;14.20;84.60;;;;;;4141770;28;20057;-61
2022/09/28 09:25:58;;;;;;;0.30;0.30;;;14.20;85.50;;;;;;4157013;28;20513;-61
2022/09/28 09:28:55;;;;;;;0.00;0.00;;;14.20;84.70;;;;;;4157317;28;20114;-61
2022/09/28 09:32:03;;;;;;;0.20;0.20;;;14.20;84.70;;;;;;4155886;28;20126;-61
2022/09/28 09:35:10;;;;;;;0.00;0.00;;;14.20;84.70;;;;;;4147747;28;20048;-61
2022/09/28 09:38:20;;;;;;;0.00;0.00;;;14.20;84.70;;;;;;4158381;28;20056;-61
2022/09/28 09:41:36;;;;;;;0.00;0.00;;;14.30;84.80;;;;;;4156032;28;20232;-62
2022/09/28 09:45:13;;;;;;;0.00;0.00;;;14.30;84.70;;;;;;4158497;28;20064;-54
2022/09/28 09:48:13;;;;;;;0.65;0.47;;;14.30;84.70;;;;;;4168032;28;20142;-53
2022/09/28 09:50:59;;;;;;;0.00;0.00;;;14.30;84.70;;;;;;4156971;28;20049;-55
2022/09/28 09:53:45;;;;;;;0.00;0.00;;;14.40;84.90;;;;;;4159698;28;20052;-53
2022/09/28 09:56:34;;;;;;;0.20;0.20;;;14.40;84.90;;;;;;4160539;28;20056;-53
2022/09/28 09:59:32;;;;;;;0.00;0.00;;;14.40;84.90;;;;;;4144113;28;20061;-51
2022/09/28 10:02:23;;;;;;;0.10;0.10;;;14.40;84.90;;;;;;4145915;28;20065;-52
2022/09/28 10:05:22;;;;;;;0.00;0.00;;;14.40;84.90;;;;;;4151153;28;20057;-53
2022/09/28 10:08:11;;;;;;;0.00;0.00;;;14.40;84.80;;;;;;4147462;28;20179;-54
2022/09/28 10:11:02;;;;;;;0.75;0.75;;;14.40;84.80;;;;;;4155400;28;20111;-54
2022/09/28 10:13:47;;;;;;;0.00;0.00;;;14.40;84.70;;;;;;4159088;28;20065;-73
2022/09/28 10:16:48;;;;;;;0.00;0.00;;;14.50;84.80;;;;;;4147065;28;20091;-74
2022/09/28 10:19:40;;;;;;;0.00;0.00;;;14.50;84.80;;;;;;4147617;28;20139;-73
2022/09/28 10:22:44;;;;;;;0.00;0.00;;;14.50;84.80;;;;;;4161010;28;20103;-69
2022/09/28 10:25:32;;;;;;;1.95;1.23;;;14.50;84.80;;;;;;4168043;28;20501;-68
2022/09/28 10:28:19;;;;;;;0.00;0.00;;;14.50;84.80;;;;;;4164671;28;20195;-70
2022/09/28 10:31:00;;;;;;;0.00;0.00;;;14.60;84.90;;;;;;4160163;28;20187;-70
2022/09/28 10:33:42;;;;;;;0.00;0.00;;;14.60;84.70;;;;;;4154248;28;20060;-69
2022/09/28 10:36:25;;;;;;;0.00;0.00;;;14.60;84.80;;;;;;4148199;28;20080;-69
2022/09/28 10:39:30;;;;;;;0.00;0.00;;;14.60;84.80;;;;;;4136890;28;20076;-71
2022/09/28 10:42:17;;;;;;;0.22;0.22;;;14.60;84.90;;;;;;4146504;28;20064;-70
2022/09/28 10:45:01;;;;;;;0.00;0.00;;;14.70;84.80;;;;;;4164071;28;20094;-70
2022/09/28 10:47:47;;;;;;;0.10;0.10;;;14.70;84.70;;;;;;4147630;28;20211;-70
2022/09/28 10:50:30;;;;;;;0.00;0.00;;;14.80;84.60;;;;;;4157805;28;20374;-70
2022/09/28 10:53:20;;;;;;;0.00;0.00;;;14.80;84.50;;;;;;4156837;28;20052;-71
2022/09/28 10:56:21;;;;;;;0.03;0.03;;;14.80;84.50;;;;;;4159458;28;20107;-74
2022/09/28 10:59:24;;;;;;;0.00;0.00;;;14.90;84.50;;;;;;4160258;28;20048;-74
2022/09/28 11:02:20;;;;;;;0.00;0.00;;;15.00;84.60;;;;;;4151726;28;34854;-71
2022/09/28 11:05:03;;;;;;;0.00;0.00;;;15.00;84.50;;;;;;4172800;28;32704;-73
2022/09/28 11:07:51;;;;;;;0.00;0.00;;;15.10;84.60;;;;;;4175202;28;20044;-73
2022/09/28 11:10:37;;;;;;;0.10;0.10;;;15.10;84.30;;;;;;4175510;28;20072;-74
2022/09/28 11:13:30;;;;;;;0.00;0.00;;;15.20;84.20;;;;;;4158901;28;20501;-73
2022/09/28 11:16:27;;;;;;;0.00;0.00;;;15.20;84.10;;;;;;4158360;28;20378;-74
2022/09/28 11:19:29;;;;;;;0.00;0.00;;;15.20;84.80;;;;;;4158675;28;20146;-74
2022/09/28 11:22:24;;;;;;;0.00;0.00;;;15.30;84.00;;;;;;4159180;28;20060;-74
2022/09/28 11:25:22;;;;;;;0.00;0.00;;;15.30;84.00;;;;;;4147676;28;20374;-74
2022/09/28 11:28:04;;;;;;;0.00;0.00;;;15.40;84.10;;;;;;4158553;28;20053;-73
2022/09/28 11:30:51;;;;;;;0.00;0.00;;;15.40;84.10;;;;;;4147498;28;20421;-73
2022/09/28 11:34:12;;;;;;;0.00;0.00;;;15.40;84.10;;;;;;4159275;28;20053;-72
2022/09/28 11:37:43;;;;;;;0.00;0.00;;;15.50;84.10;;;;;;4158344;28;20163;-73
2022/09/28 11:40:39;;;;;;;0.00;0.00;;;15.60;84.00;;;;;;4160979;28;20087;-73
2022/09/28 11:43:36;;;;;;;0.20;0.20;;;15.60;83.50;;;;;;4157538;28;20180;-73
2022/09/28 11:46:30;;;;;;;0.00;0.00;;;15.70;83.00;;;;;;4160451;28;20052;-73
2022/09/28 11:49:30;;;;;;;0.00;0.00;;;15.70;83.20;;;;;;4164196;28;20121;-73
2022/09/28 11:52:18;;;;;;;0.08;0.08;;;15.70;83.10;;;;;;4159742;28;20739;-74
2022/09/28 11:55:05;;;;;;;0.00;0.00;;;15.70;83.20;;;;;;4170552;28;20114;-73
2022/09/28 11:57:54;;;;;;;0.00;0.00;;;15.70;83.30;;;;;;4173160;28;20577;-73
2022/09/28 12:00:42;;;;;;;0.10;0.10;;;15.80;83.10;;;;;;4171782;28;20060;-72
2022/09/28 12:03:29;;;;;;;0.00;0.00;;;15.70;82.80;;;;;;4142386;28;20073;-66
2022/09/28 12:06:16;;;;;;;0.00;0.00;;;15.80;82.60;;;;;;4157841;28;20056;-72
2022/09/28 12:09:05;;;;;;;0.00;0.00;;;15.80;82.50;;;;;;4169965;28;20571;-74
2022/09/28 12:12:19;;;;;;;0.28;0.28;;;15.80;82.40;;;;;;4159818;28;20179;-73
2022/09/28 12:15:04;;;;;;;0.00;0.00;;;15.80;82.30;;;;;;4157125;28;20060;-74
2022/09/28 12:17:50;;;;;;;0.13;0.13;;;15.80;82.20;;;;;;4159669;28;20136;-75
2022/09/28 12:20:34;;;;;;;0.10;0.10;;;15.80;81.90;;;;;;4169653;28;20055;-74
2022/09/28 12:23:20;;;;;;;0.00;0.00;;;15.70;81.60;;;;;;4157650;28;20064;-74
2022/09/28 12:26:03;;;;;;;0.00;0.00;;;15.80;81.40;;;;;;4171670;28;20055;-74
2022/09/28 12:28:49;;;;;;;0.00;0.00;;;15.70;81.30;;;;;;4173835;28;20183;-74
2022/09/28 12:31:34;;;;;;;0.00;0.00;;;15.70;81.50;;;;;;4161438;28;20195;-74
2022/09/28 12:34:15;;;;;;;0.00;0.00;;;15.70;81.60;;;;;;4157590;28;20059;-72
2022/09/28 12:37:09;;;;;;;0.00;0.00;;;15.70;81.80;;;;;;4157567;28;20056;-62
2022/09/28 12:40:27;;;;;;;0.00;0.00;;;15.70;82.10;;;;;;4158020;28;20536;-62
2022/09/28 12:43:32;;;;;;;0.00;0.00;;;15.70;82.20;;;;;;4158085;28;20106;-62
2022/09/28 12:46:32;;;;;;;0.00;0.00;;;15.60;83.20;;;;;;4157044;28;20172;-62
2022/09/28 12:49:40;;;;;;;0.00;0.00;;;15.60;83.30;;;;;;4158838;28;20139;-73
2022/09/28 12:52:52;;;;;;;0.00;0.00;;;15.60;82.50;;;;;;4157125;28;20049;-62
2022/09/28 12:55:49;;;;;;;0.00;0.00;;;15.60;82.40;;;;;;4161233;28;20176;-62
2022/09/28 12:58:54;;;;;;;0.00;0.00;;;15.60;82.70;;;;;;4174730;28;20059;-62
2022/09/28 13:01:46;;;;;;;0.50;0.50;;;15.60;83.60;;;;;;4174878;28;20056;-62
2022/09/28 13:04:46;;;;;;;0.52;0.52;;;15.60;82.80;;;;;;4172942;28;20059;-61
2022/09/28 13:07:36;;;;;;;0.00;0.00;;;15.60;82.90;;;;;;4159911;28;20060;-61
2022/09/28 13:10:31;;;;;;;0.00;0.00;;;15.60;82.70;;;;;;4158628;28;20592;-73
2022/09/28 13:13:33;;;;;;;0.00;0.00;;;15.60;82.80;;;;;;4158430;28;20120;-73
2022/09/28 13:16:21;;;;;;;0.00;0.00;;;15.60;82.90;;;;;;4163779;28;20067;-73
2022/09/28 13:19:15;;;;;;;0.00;0.00;;;15.60;83.00;;;;;;4174389;28;20039;-61
2022/09/28 13:22:16;;;;;;;0.00;0.00;;;15.60;83.00;;;;;;4174356;28;20098;-62
2022/09/28 13:25:02;;;;;;;0.00;0.00;;;15.50;83.10;;;;;;4161863;28;20055;-61
2022/09/28 13:27:50;;;;;;;0.00;0.00;;;15.50;83.10;;;;;;4173309;28;20056;-73
2022/09/28 13:30:35;;;;;;;0.00;0.00;;;15.50;83.30;;;;;;4167798;28;20504;-61
2022/09/28 13:33:26;;;;;;;0.00;0.00;;;15.50;83.40;;;;;;4173538;28;20075;-61
2022/09/28 13:36:38;;;;;;;0.10;0.10;;;15.60;83.60;;;;;;4168129;28;20106;-61
2022/09/28 13:39:51;;;;;;;1.55;1.45;;;15.60;83.80;;;;;;4158058;28;20037;-61
2022/09/28 13:43:05;;;;;;;0.00;0.00;;;15.60;83.90;;;;;;4157646;28;20580;-61
2022/09/28 13:45:53;;;;;;;0.00;0.00;;;15.60;84.10;;;;;;4163929;28;20056;-61
2022/09/28 13:48:44;;;;;;;0.00;0.00;;;15.60;84.10;;;;;;4157565;28;20061;-72
2022/09/28 13:51:35;;;;;;;0.00;0.00;;;15.70;84.20;;;;;;4157626;28;20168;-66
2022/09/28 13:54:27;;;;;;;0.00;0.00;;;15.70;84.20;;;;;;4158282;28;20060;-61
2022/09/28 13:57:18;;;;;;;0.00;0.00;;;15.70;84.10;;;;;;4157377;28;20478;-72
2022/09/28 14:00:09;;;;;;;0.00;0.00;;;15.80;84.00;;;;;;4157997;28;20072;-73
2022/09/28 14:03:00;;;;;;;0.00;0.00;;;15.80;84.30;;;;;;4158159;28;20086;-72
2022/09/28 14:06:03;;;;;;;0.10;0.10;;;15.80;84.20;;;;;;4157459;28;20044;-74
2022/09/28 14:09:05;;;;;;;0.00;0.00;;;15.90;84.30;;;;;;4158030;28;20057;-73
2022/09/28 14:11:56;;;;;;;0.00;0.00;;;15.90;84.00;;;;;;4157996;28;20057;-61
2022/09/28 14:14:49;;;;;;;0.00;0.00;;;15.90;83.80;;;;;;4157602;28;20083;-61
2022/09/28 14:17:54;;;;;;;0.00;0.00;;;16.00;83.90;;;;;;4158054;28;20051;-61
2022/09/28 14:20:36;;;;;;;0.00;0.00;;;16.00;83.70;;;;;;4161101;28;20499;-61
2022/09/28 14:23:51;;;;;;;0.20;0.20;;;16.10;84.00;;;;;;4158322;28;20056;-60
2022/09/28 14:26:58;;;;;;;0.00;0.00;;;16.10;84.00;;;;;;4169698;28;20178;-72
2022/09/28 14:29:40;;;;;;;0.00;0.00;;;16.20;84.10;;;;;;4171264;28;20052;-61
2022/09/28 14:32:23;;;;;;;0.00;0.00;;;16.20;83.90;;;;;;4174449;28;20051;-60
2022/09/28 14:35:13;;;;;;;0.00;0.00;;;16.20;83.90;;;;;;4170602;28;20043;-61
2022/09/28 14:41:11;;;;;;;0.00;0.00;;;16.30;83.80;;;;;;4175272;28;20052;-61
2022/09/28 14:44:15;;;;;;;0.00;0.00;;;16.40;83.90;;;;;;4177274;28;20048;-61
2022/09/28 14:47:25;;;;;;;0.00;0.00;;;16.40;83.60;;;;;;4159354;28;20071;-61
2022/09/28 14:50:29;;;;;;;0.00;0.00;;;16.40;83.50;;;;;;4160526;28;20072;-61
2022/09/28 14:53:19;;;;;;;0.00;0.00;;;16.40;83.40;;;;;;4160439;28;20048;-61
2022/09/28 14:56:07;;;;;;;0.00;0.00;;;16.40;83.30;;;;;;4158701;28;20167;-62
2022/09/28 14:58:53;;;;;;;0.00;0.00;;;16.40;83.50;;;;;;4158789;28;20076;-63